Home > Products > Valid Products > TAF

000
FTUS42 KRAH 192209 AAA
TAFRDU
TAF AMD
KRDU 192209Z 1922/2018 05010KT P6SM OVC060
      TEMPO 1922/2002 6SM -RA
     FM201200 03011G22KT P6SM BKN200=



000
FTUS42 KRAH 191736
TAFRDU
TAF
KRDU 191736Z 1918/2018 05010KT 6SM -RA BR SCT009 OVC060
      TEMPO 1918/1921 4SM -RA BR BKN009
     FM192100 04011KT 6SM -RA BR OVC015
     FM200000 05012KT 6SM BR OVC050
     FM201200 03011G22KT P6SM BKN200=



000
FTUS42 KRAH 191736
TAFINT
TAF
KINT 191736Z 1918/2018 04011KT P6SM OVC080
      TEMPO 1918/1921 6SM -RA BR OVC050
     FM201500 05010G20KT P6SM BKN200=



000
FTUS42 KRAH 191736
TAFGSO
TAF
KGSO 191736Z 1918/2018 04011KT P6SM SCT040 BKN080
      TEMPO 1920/1923 6SM -RA OVC040
     FM201500 05010G20KT P6SM BKN200=



000
FTUS42 KRAH 191736
TAFFAY
TAF
KFAY 191736Z 1918/2018 03012G25KT P6SM BKN010
     FM192200 03012G22KT P6SM OVC007
      TEMPO 1922/2001 5SM -RA BR SCT007 OVC010
     FM200900 02012G25KT P6SM OVC015=



000
FTUS42 KRAH 191736
TAFRWI
TAF
KRWI 191736Z 1918/2018 04010G20KT P6SM SCT010 OVC060
      TEMPO 1918/1921 6SM -RA BR BKN010
     FM200000 05012KT 6SM BR OVC025
     FM201200 03012G22KT P6SM BKN200=



000
FTUS42 KRAH 191718 AAA
TAFFAY
TAF AMD
KFAY 191718Z 1917/2012 03015G25KT P6SM BKN008 OVC015
      TEMPO 1917/1920 4SM -RA BR SCT008 BKN015
     FM200300 03011G20KT P6SM -DZ OVC025=



000
FTUS42 KRAH 191448 AAA
TAFRDU
TAF AMD
KRDU 191448Z 1915/2012 03009KT 5SM -RA BR SCT007 OVC060
     FM191600 05012G20KT 6SM -RA BR SCT009 BKN015 OVC050
     FM192100 05010G18KT P6SM OVC060=



000
FTUS42 KRAH 191126
TAFINT
TAF
KINT 191126Z 1912/2012 05008KT P6SM -RA FEW008 BKN100 OVC110
     FM191600 06012G20KT P6SM -RADZ SCT009 BKN015 OVC050
     FM192100 05010KT P6SM OVC060=



000
FTUS42 KRAH 191126
TAFFAY
TAF
KFAY 191126Z 1912/2012 03012G20KT P6SM -RA FEW007 OVC070
     FM192200 04015G26KT 6SM -RADZ BR SCT007 OVC012
     FM200300 03011G20KT P6SM -DZ OVC025=



000
FTUS42 KRAH 191126
TAFRWI
TAF
KRWI 191126Z 1912/2012 02010KT P6SM -RA OVC070
     FM191600 04012G22KT P6SM -RA SCT009 BKN015 OVC050
     FM192100 04010G17KT P6SM OVC060=



000
FTUS42 KRAH 191126
TAFGSO
TAF
KGSO 191126Z 1912/2012 03009KT P6SM -RA FEW005 OVC100
     FM191600 06012G22KT P6SM -RADZ SCT009 BKN015 OVC050
     FM192100 05011KT P6SM OVC060=



000
FTUS42 KRAH 191126
TAFRDU
TAF
KRDU 191126Z 1912/2012 03009KT 6SM -RA BR SCT007 SCT060 OVC080
     FM191600 05012G20KT P6SM -RADZ SCT009 BKN015 OVC050
     FM192100 05010G18KT P6SM OVC060=



000
FTUS42 KRAH 191045 AAD
TAFFAY
TAF AMD
KFAY 191045Z 1911/2006 03014KT P6SM -RA FEW007 BKN035 OVC050
     FM192200 04015G26KT 4SM -RA BR SCT007 OVC012
     FM200300 03013G22KT 6SM -RADZ OVC025=



000
FTUS42 KRAH 191044 AAD
TAFRDU
TAF AMD
KRDU 191044Z 1911/2006 03009KT 6SM -RA BR SCT007 SCT060 OVC080
     FM191600 05012G20KT P6SM -RA SCT009 BKN015 OVC050
     FM192100 05012G20KT P6SM OVC060=



000
FTUS42 KRAH 190903 AAA
TAFINT
TAF AMD
KINT 190903Z 1909/2006 04006KT P6SM -RA BKN035 OVC090
     FM191200 05012G22KT 5SM -RA BR OVC009
     FM191600 06012G22KT P6SM -RA SCT009 BKN015 OVC050
     FM192100 05011KT P6SM OVC060=



000
FTUS42 KRAH 190903 AAC
TAFFAY
TAF AMD
KFAY 190903Z 1909/2006 04014G24KT 2SM -RA BR SCT008 BKN025
     FM192200 04015G26KT 4SM -RA BR SCT007 OVC012
     FM200300 03013G22KT 6SM -RADZ OVC025=



000
FTUS42 KRAH 190903 AAC
TAFRDU
TAF AMD
KRDU 190903Z 1909/2006 04009G15KT 5SM -RA BR BKN007 BKN060 OVC080
     FM191600 05012G24KT P6SM -RA SCT009 BKN015 OVC050
     FM192100 05012G20KT P6SM OVC060=



000
FTUS42 KRAH 190902 AAB
TAFGSO
TAF AMD
KGSO 190902Z 1909/2006 05010KT 5SM -RA BR SCT005 BKN060 OVC080
     FM191200 05012G22KT 5SM -RA BR OVC009
     FM191600 06012G22KT P6SM -RA SCT009 BKN015 OVC050
     FM192100 05011KT P6SM OVC060=



000
FTUS42 KRAH 190758 AAB
TAFFAY
TAF AMD
KFAY 190758Z 1908/2006 04013KT P6SM FEW006 SCT021 OVC050
     FM191000 04014G25KT 2SM -RA BR BKN006 BKN025
     FM192200 04015G26KT 4SM -RA BR SCT007 OVC012
     FM200300 03013G22KT 6SM -RADZ OVC025=



000
FTUS42 KRAH 190708 AAA
TAFGSO
TAF AMD
KGSO 190708Z 1907/2006 05006KT 5SM -RA BR SCT005 OVC100
     FM190900 05010KT 5SM -RA BR OVC012
     FM191200 05012G22KT 5SM -RA BR OVC009
     FM191600 06012G22KT P6SM -RA SCT009 BKN015 OVC050
     FM192100 05011KT P6SM OVC060=



000
FTUS42 KRAH 190708 AAB
TAFRDU
TAF AMD
KRDU 190708Z 1907/2006 06008KT 5SM -RA BR BKN007 BKN050 OVC080
     FM190900 04010KT 5SM -RA BR OVC012
     FM191200 04012G24KT 5SM -RA BR OVC009
     FM191600 05012G24KT P6SM -RA SCT009 BKN015 OVC050
     FM192100 05012G20KT P6SM OVC060=



000
FTUS42 KRAH 190708 AAA
TAFFAY
TAF AMD
KFAY 190708Z 1907/2006 05012G19KT 5SM -RA BR BKN005 OVC060
     FM191000 04014G25KT 2SM -RA BR OVC004
     FM192200 04015G26KT 4SM -RA BR SCT007 OVC012
     FM200300 03013G22KT 6SM -RADZ OVC025=



000
FTUS42 KRAH 190613 AAA
TAFRDU
TAF AMD
KRDU 190613Z 1906/2006 06008KT 6SM -RA BR BKN008 BKN050 OVC080
     FM190900 04010KT 5SM -RA BR OVC012
     FM191200 04012G24KT 5SM -RA BR OVC009
     FM191600 05012G24KT P6SM -RA SCT009 BKN015 OVC050
     FM192100 05012G20KT P6SM OVC060=



000
FTUS42 KRAH 190542
TAFGSO
TAF
KGSO 190542Z 1906/2006 05006KT P6SM -RA OVC100
     FM190900 05010KT 5SM -RA BR OVC012
     FM191200 05012G22KT 5SM -RA BR OVC009
     FM191600 06012G22KT P6SM -RA SCT009 BKN015 OVC050
     FM192100 05011KT P6SM OVC060=



000
FTUS42 KRAH 190542
TAFFAY
TAF
KFAY 190542Z 1906/2006 05014G20KT 3SM -RA BR BKN006 OVC035
     FM191000 04014G25KT 2SM -RA BR OVC004
     FM192200 04015G26KT 4SM -RA BR SCT007 OVC012
     FM200300 03013G22KT 6SM -RADZ OVC025=



000
FTUS42 KRAH 190542
TAFINT
TAF
KINT 190542Z 1906/2006 04006KT P6SM -RA BKN035 OVC090
     FM190900 05010KT 5SM -RA BR OVC012
     FM191200 05012G22KT 5SM -RA BR OVC009
     FM191600 06012G22KT P6SM -RA SCT009 BKN015 OVC050
     FM192100 05011KT P6SM OVC060=



000
FTUS42 KRAH 190542
TAFRWI
TAF
KRWI 190542Z 1906/2006 06007KT P6SM OVC100
     FM190800 04010KT 5SM -RA BR OVC012
     FM191200 04012G24KT 5SM -RA BR OVC009
     FM191600 05012G24KT P6SM -RA SCT009 BKN015 OVC050
     FM192100 05012G20KT P6SM OVC060=



000
FTUS42 KRAH 190542
TAFRDU
TAF
KRDU 190542Z 1906/2006 04006KT 6SM -RA BR FEW060 OVC090
     FM190900 04010KT 5SM -RA BR OVC012
     FM191200 04012G24KT 5SM -RA BR OVC009
     FM191600 05012G24KT P6SM -RA SCT009 BKN015 OVC050
     FM192100 05012G20KT P6SM OVC060=



000
FTUS42 KRAH 190514 AAB
TAFRWI
TAF AMD
KRWI 190514Z 1905/1924 06007KT P6SM OVC100
     FM190700 05010KT 5SM -RA BR OVC015
     FM191000 06011KT 5SM -RA BR OVC007
     FM191200 05011G21KT 2SM -RA BR OVC004
     FM192300 05012G22KT 4SM -RA BR SCT007 OVC012=



000
FTUS42 KRAH 190514 AAA
TAFINT
TAF AMD
KINT 190514Z 1905/1924 05005KT P6SM -RA OVC090
     FM190800 02012KT 5SM -RA BR OVC012
     FM191200 02012G22KT 5SM -RA BR OVC007
     FM192200 06012G22KT P6SM SCT007 BKN015=



000
FTUS42 KRAH 190513 AAB
TAFGSO
TAF AMD
KGSO 190513Z 1905/1924 05006KT P6SM -RA OVC100
     FM190800 03012KT 5SM -RA BR OVC012
     FM191200 03012G22KT 3SM -RA BR OVC007
     FM192100 06012G22KT P6SM SCT007 BKN015=



000
FTUS42 KRAH 190512 AAB
TAFRDU
TAF AMD
KRDU 190512Z 1905/1924 03006KT P6SM -RA BKN080 OVC100
     FM190900 03010KT 5SM -RA BR OVC015
     FM191200 05011G21KT 3SM -RA BR OVC007
     FM192000 05012G22KT 4SM -RA BR SCT007 OVC012=



000
FTUS42 KRAH 190511 AAB
TAFFAY
TAF AMD
KFAY 190511Z 1905/1924 05012G16KT 3SM -RA BR BKN006 OVC035
     FM191000 02012G22KT 2SM -RA BR OVC004
     FM192200 05012G22KT 4SM -RA BR SCT007 OVC012=



000
FTUS42 KRAH 190207 AAA
TAFRWI
TAF AMD
KRWI 190207Z 1902/1924 03010KT P6SM -RA BKN080 OVC100
     FM190400 05010KT 5SM -RA BR OVC015
     FM190600 06011KT 5SM -RA BR OVC007
     FM191200 05011G21KT 2SM -RA BR OVC004
     FM192300 05012G22KT 4SM -RA BR SCT007 OVC012=



000
FTUS42 KRAH 190206 AAA
TAFFAY
TAF AMD
KFAY 190206Z 1902/1924 03010KT P6SM -RA BKN060 OVC100
     FM190400 03010KT 5SM -RA BR OVC015
     FM190600 03011KT 4SM -RA BR OVC007
     FM191000 02012G22KT 2SM -RA BR OVC004
     FM192200 05012G22KT 4SM -RA BR SCT007 OVC012=



000
FTUS42 KRAH 190205 AAA
TAFRDU
TAF AMD
KRDU 190205Z 1902/1924 03006KT P6SM -RA BKN080 OVC100
     FM190400 03010KT 5SM -RA BR OVC015
     FM190600 06011KT 4SM -RA BR OVC007
     FM191100 05011G21KT 2SM -RA BR OVC004
     FM192000 05012G22KT 4SM -RA BR SCT007 OVC012=



000
FTUS42 KRAH 190203 AAA
TAFGSO
TAF AMD
KGSO 190203Z 1902/1924 03006KT P6SM -RA BKN080 OVC250
     FM190500 04010KT 5SM -RA BR OVC019
     FM191000 03012G22KT 5SM -RA BR OVC007
     FM192200 06012G22KT P6SM SCT007 BKN015=



000
FTUS42 KRAH 182333
TAFINT
TAF
KINT 182333Z 1900/1924 02006KT P6SM -RA BKN080 OVC250
     FM190500 04010KT 5SM -RA BR OVC019
     FM191000 02012G22KT 5SM -RA BR OVC007
     FM192200 06012G22KT P6SM SCT007 BKN015=



000
FTUS42 KRAH 182333
TAFRDU
TAF
KRDU 182333Z 1900/1924 02009KT P6SM BKN100 OVC250
     FM190200 03010KT P6SM -RA OVC025
     FM190500 06011KT 5SM -RA BR OVC007
     FM191100 05011G21KT 2SM -RA BR OVC004
     FM192000 05012G22KT 4SM -RA BR SCT007 OVC012=



000
FTUS42 KRAH 182333
TAFGSO
TAF
KGSO 182333Z 1900/1924 03006KT P6SM -RA BKN080 OVC250
     FM190500 04010KT 5SM -RA BR OVC019
     FM191000 03012G22KT 5SM -RA BR OVC007
     FM192200 06012G22KT P6SM SCT007 BKN015=



000
FTUS42 KRAH 182333
TAFRWI
TAF
KRWI 182333Z 1900/1924 02009KT P6SM OVC250
     FM190300 03010KT P6SM -RA OVC025
     FM190600 06011KT 5SM -RA BR OVC007
     FM191200 05011G21KT 2SM -RA BR OVC004
     FM192300 05012G22KT 4SM -RA BR SCT007 OVC012=



000
FTUS42 KRAH 182333
TAFFAY
TAF
KFAY 182333Z 1900/1924 02009KT P6SM BKN090 OVC250
     FM190100 03010KT P6SM -RA OVC025
     FM190500 03011KT 5SM -RA BR OVC007
     FM191000 02012G22KT 2SM -RA BR OVC004
     FM192200 05012G22KT 4SM -RA BR SCT007 OVC012=



000
FTUS42 KRAH 181739
TAFGSO
TAF
KGSO 181739Z 1818/1918 03006KT P6SM OVC250
     FM190500 04010KT P6SM OVC015
     FM191200 03012G22KT 5SM -RA BR OVC007=



000
FTUS42 KRAH 181739
TAFINT
TAF
KINT 181739Z 1818/1918 02006KT P6SM OVC250
     FM190600 04010KT P6SM OVC030
     FM191200 02012G22KT 5SM -RA BR OVC007=



000
FTUS42 KRAH 181739
TAFRDU
TAF
KRDU 181739Z 1818/1918 02009KT P6SM OVC250
     FM190200 03010KT P6SM OVC025
     FM190600 06011KT 5SM -RA BR OVC007
     FM191100 05011G21KT 2SM -RA BR OVC004
     FM191500 05012G22KT 1/2SM -RA FG OVC004=



000
FTUS42 KRAH 181739
TAFFAY
TAF
KFAY 181739Z 1818/1918 02009KT P6SM OVC250
     FM190300 03010KT P6SM OVC015
     FM190600 03011KT 5SM -RA BR OVC007
     FM191000 02012G22KT 2SM -RA BR OVC004=



000
FTUS42 KRAH 181739
TAFRWI
TAF
KRWI 181739Z 1818/1918 02009KT P6SM OVC250
     FM190200 03010KT P6SM OVC025
     FM190600 06011KT 5SM -RA BR OVC007
     FM191200 05011G21KT 2SM -RA BR OVC004=



000
FTUS42 KRAH 181140
TAFRWI
TAF
KRWI 181140Z 1812/1912 03010KT P6SM SCT040 BKN200
      TEMPO 1812/1814 BKN012 OVC200
     FM190800 04009KT 6SM -RA SCT025 BKN045 OVC070
      AMD NOT SKED=



000
FTUS42 KRAH 181140
TAFGSO
TAF
KGSO 181140Z 1812/1912 04008KT P6SM BKN200
      TEMPO 1812/1814 BKN010 OVC200
     FM190700 04009KT 6SM -RA SCT025 BKN035 OVC070=



000
FTUS42 KRAH 181140
TAFRDU
TAF
KRDU 181140Z 1812/1912 04009KT P6SM SCT040 BKN200
      TEMPO 1812/1814 BKN009 OVC200
     FM190600 04009KT 6SM -RA SCT025 BKN040 OVC070=



000
FTUS42 KRAH 181140
TAFINT
TAF
KINT 181140Z 1812/1912 04008KT P6SM BKN200
      TEMPO 1812/1813 BKN009 OVC200
     FM190700 04009KT 6SM -RA SCT025 BKN035 OVC070=



000
FTUS42 KRAH 181140
TAFFAY
TAF
KFAY 181140Z 1812/1912 04011KT P6SM SCT040 BKN250
     FM190400 04012KT 6SM -RA SCT025 BKN035 OVC070
     FM190700 03013KT 4SM -RA BKN020 OVC045=



000
FTUS42 KRAH 181100 AAB
TAFGSO
TAF AMD
KGSO 181100Z 1811/1906 07008KT P6SM BKN250
      TEMPO 1811/1813 BKN010 BKN250=



000
FTUS42 KRAH 180909 AAA
TAFINT
TAF AMD
KINT 180909Z 1809/1906 07008KT P6SM BKN250
      TEMPO 1810/1813 SCT010 BKN250=



000
FTUS42 KRAH 180909 AAA
TAFGSO
TAF AMD
KGSO 180909Z 1809/1906 07008KT P6SM BKN250
      TEMPO 1809/1813 SCT010 BKN250=



000
FTUS42 KRAH 180909 AAA
TAFRDU
TAF AMD
KRDU 180909Z 1809/1906 05007KT P6SM SCT250
      TEMPO 1810/1813 BKN010 BKN250
     FM181300 04009KT P6SM SCT040 BKN200=



000
FTUS42 KRAH 180540
TAFRWI
TAF
KRWI 180540Z 1806/1906 04007KT P6SM SCT015 BKN250
     FM180900 03007KT P6SM BKN008 BKN250
     FM181300 03009KT P6SM FEW030 BKN200
      AMD NOT SKED=



000
FTUS42 KRAH 180540
TAFINT
TAF
KINT 180540Z 1806/1906 07005KT P6SM SCT250
      TEMPO 1810/1813 SCT006 BKN250=



000
FTUS42 KRAH 180540
TAFRDU
TAF
KRDU 180540Z 1806/1906 05007KT P6SM SCT250
     FM180900 04008KT P6SM BKN008 BKN250
     FM181300 04009KT P6SM SCT045 BKN200=



000
FTUS42 KRAH 180540
TAFFAY
TAF
KFAY 180540Z 1806/1906 06008KT P6SM SCT045 BKN250
      TEMPO 1810/1813 BKN010
     FM181300 04009KT P6SM SCT045 BKN200
     FM190300 04009KT 6SM -RA SCT025 BKN035 OVC070=



000
FTUS42 KRAH 180540
TAFGSO
TAF
KGSO 180540Z 1806/1906 07005KT P6SM SCT250
      TEMPO 1810/1813 SCT006 BKN250=



000
FTUS42 KRAH 180218 AAA
TAFRDU
TAF AMD
KRDU 180218Z 1802/1824 06006KT P6SM BKN250
      TEMPO 1809/1813 SCT008
     FM181800 06009KT P6SM BKN050 OVC150=



000
FTUS42 KRAH 180218 AAA
TAFGSO
TAF AMD
KGSO 180218Z 1802/1824 03006KT P6SM BKN250
      TEMPO 1809/1813 SCT006
     FM181800 06009KT P6SM BKN050 OVC150=



000
FTUS42 KRAH 172324
TAFFAY
TAF
KFAY 172324Z 1800/1824 04006KT P6SM BKN250
      TEMPO 1809/1813 FEW008
     FM181800 06009KT P6SM BKN050 OVC150=



000
FTUS42 KRAH 172324
TAFRWI
TAF
KRWI 172324Z 1800/1824 03006KT P6SM BKN250
      TEMPO 1809/1813 SCT008
     FM181800 06009KT P6SM BKN050 OVC150
      AMD NOT SKED=



000
FTUS42 KRAH 172324
TAFRDU
TAF
KRDU 172324Z 1800/1824 06006KT P6SM BKN250
      TEMPO 1809/1813 FEW008
     FM181800 06009KT P6SM BKN050 OVC150=



000
FTUS42 KRAH 172324
TAFINT
TAF
KINT 172324Z 1800/1824 03006KT P6SM BKN250
      TEMPO 1809/1813 SCT006
     FM181800 06009KT P6SM BKN050 OVC150=



000
FTUS42 KRAH 172324
TAFGSO
TAF
KGSO 172324Z 1800/1824 03006KT P6SM BKN250
      TEMPO 1809/1813 SCT006
     FM181800 06009KT P6SM BKN050 OVC150=



000
FTUS42 KRAH 171737 CCA
TAFGSO
TAF COR
KGSO 171737Z 1718/1818 06009KT P6SM BKN250
      TEMPO 1809/1813 SCT006
     FM181300 04009KT P6SM BKN250=



000
FTUS42 KRAH 171736
TAFRWI
TAF
KRWI 171736Z 1718/1818 03011KT P6SM BKN250
      TEMPO 1809/1813 FEW008
      AMD NOT SKED=



000
FTUS42 KRAH 171736
TAFGSO
TAF
KGSO 171736Z 1718/1818 06009KT P6SM BKN250
      TEMPO 1809/1813 SCT006
     FM181300 04009KT P6SM BKN250=



000
FTUS42 KRAH 171736
TAFGSO
TAF

TEMPO
 1809/1813 SCT006
TEMPO
 1809/1813 FEW008=



000
FTUS42 KRAH 171736
TAFINT
TAF
KINT 171736Z 1718/1818 06009KT P6SM BKN250
      TEMPO 1809/1813 SCT006
     FM181300 04009KT P6SM BKN250=



000
FTUS42 KRAH 171736
TAFRDU
TAF
KRDU 171736Z 1718/1818 06008KT P6SM BKN250
      TEMPO 1809/1813 FEW008=



000
FTUS42 KRAH 171736
TAFFAY
TAF
KFAY 171736Z 1718/1818 04011KT P6SM BKN250
      TEMPO 1809/1813 FEW008=



000
FTUS42 KRAH 171129
TAFGSO
TAF
KGSO 171129Z 1712/1812 04009KT P6SM SCT250=



000
FTUS42 KRAH 171129
TAFRWI
TAF
KRWI 171129Z 1712/1812 03011KT P6SM SKC
      TEMPO 1713/1717 04013G20KT P6SM SCT045 SCT250
      AMD NOT SKED=



000
FTUS42 KRAH 171129
TAFFAY
TAF
KFAY 171129Z 1712/1812 04011KT P6SM SKC
      TEMPO 1713/1717 04013G20KT P6SM SCT045 SCT250=



000
FTUS42 KRAH 171129
TAFRDU
TAF
KRDU 171129Z 1712/1812 04010KT P6SM SCT250
      TEMPO 1713/1717 05012G19KT P6SM SCT045 SCT250=



000
FTUS42 KRAH 171129
TAFINT
TAF
KINT 171129Z 1712/1812 04009KT P6SM SCT250=



000
FTUS42 KRAH 170900 AAA
TAFGSO
TAF AMD
KGSO 170900Z 1709/1806 02007KT P6SM FEW250=



000
FTUS42 KRAH 170900 AAA
TAFRDU
TAF AMD
KRDU 170900Z 1709/1806 05008KT P6SM FEW250
      TEMPO 1714/1718 06012G18KT P6SM SCT035 SCT250=



000
FTUS42 KRAH 170900 AAA
TAFINT
TAF AMD
KINT 170900Z 1709/1806 02007KT P6SM FEW250=



000
FTUS42 KRAH 170540
TAFRWI
TAF
KRWI 170540Z 1706/1806 03005KT P6SM SKC
     FM171400 04012G20KT P6SM SCT030
     FM171800 03010KT P6SM SCT250
      AMD NOT SKED=



000
FTUS42 KRAH 170540
TAFINT
TAF
KINT 170540Z 1706/1806 06007KT P6SM SKC=



000
FTUS42 KRAH 170540
TAFGSO
TAF
KGSO 170540Z 1706/1806 06007KT P6SM SKC=



000
FTUS42 KRAH 170540
TAFFAY
TAF
KFAY 170540Z 1706/1806 05007KT P6SM SKC
     FM171400 04012G20KT P6SM SCT030
     FM171800 05009KT P6SM SCT250=



000
FTUS42 KRAH 170540
TAFRDU
TAF
KRDU 170540Z 1706/1806 07009KT P6SM SKC
      TEMPO 1714/1718 06012G18KT P6SM SCT035=



000
FTUS42 KRAH 170228 AAA
TAFRDU
TAF AMD
KRDU 170228Z 1702/1724 07005KT P6SM SKC
     FM171400 06012G20KT P6SM SCT030=



000
FTUS42 KRAH 170228 AAA
TAFGSO
TAF AMD
KGSO 170228Z 1702/1724 07005KT P6SM SKC
     FM171400 06009KT P6SM SCT250=



000
FTUS42 KRAH 162320
TAFINT
TAF
KINT 162320Z 1700/1724 07005KT P6SM SKC
     FM171400 06009KT P6SM SCT250=



000
FTUS42 KRAH 162320
TAFFAY
TAF
KFAY 162320Z 1700/1724 07005KT P6SM SKC
     FM171400 06012G20KT P6SM SCT030=



000
FTUS42 KRAH 162320
TAFGSO
TAF
KGSO 162320Z 1700/1724 07005KT P6SM SKC
     FM171400 06009KT P6SM SCT250=



000
FTUS42 KRAH 162320
TAFRWI
TAF
KRWI 162320Z 1700/1724 07005KT P6SM SKC
     FM171400 06012G20KT P6SM SCT030
      AMD NOT SKED=



000
FTUS42 KRAH 162320
TAFRDU
TAF
KRDU 162320Z 1700/1724 07005KT P6SM SKC
     FM171400 06012G20KT P6SM SCT030=



    US Dept of Commerce
    National Oceanic and Atmospheric Administration
    National Weather Service
    1325 East West Highway
    Silver Spring, MD 20910
    Page Author: NWS Internet Services Team
Disclaimer
Information Quality
Credits
Glossary
Privacy Policy
Freedom of Information Act (FOIA)
About Us
Career Opportunities